Time;durP1;ratioP1;P1;durP2;ratioP2;P2;SDS_P1;SDS_P2;PMS_P1;PMS_P2;Temp;Humidity;BMP_temperature;BMP_pressure;BME280_temperature;BME280_humidity;BME280_pressure;Samples;Min_cycle;Max_cycle;Signal;HPM_P1;HPM_P2
2022/03/23 00:01:58;;;;;;;23.27;8.27;;;8.90;99.90;;;;;;5052009;28;20045;-64
2022/03/23 00:04:24;;;;;;;24.08;8.77;;;8.90;99.90;;;;;;5052039;28;20037;-62
2022/03/23 00:06:49;;;;;;;22.00;8.15;;;8.90;99.90;;;;;;5050956;28;20026;-62
2022/03/23 00:09:15;;;;;;;22.23;8.30;;;8.90;99.90;;;;;;5050735;28;20033;-63
2022/03/23 00:11:41;;;;;;;24.95;8.57;;;8.90;99.90;;;;;;5049076;28;20039;-63
2022/03/23 00:14:09;;;;;;;20.45;8.25;;;8.80;99.90;;;;;;5048721;28;20036;-63
2022/03/23 00:16:38;;;;;;;23.08;8.88;;;8.80;99.90;;;;;;5049001;28;20104;-61
2022/03/23 00:19:07;;;;;;;38.42;10.30;;;8.80;99.90;;;;;;5048703;28;20086;-62
2022/03/23 00:21:33;;;;;;;23.00;7.93;;;8.70;99.90;;;;;;5048933;28;20486;-62
2022/03/23 00:23:58;;;;;;;24.60;8.52;;;8.70;99.90;;;;;;5048138;28;20165;-62
2022/03/23 00:26:24;;;;;;;18.50;8.60;;;8.70;99.90;;;;;;5048721;28;20048;-63
2022/03/23 00:28:50;;;;;;;29.23;10.65;;;8.70;99.90;;;;;;5048869;28;20025;-62
2022/03/23 00:31:15;;;;;;;23.30;8.27;;;8.70;99.90;;;;;;5030558;28;20095;-62
2022/03/23 00:33:41;;;;;;;22.75;8.52;;;8.70;99.90;;;;;;5048984;28;20112;-61
2022/03/23 00:36:09;;;;;;;25.88;9.52;;;8.60;99.90;;;;;;5048782;28;20041;-61
2022/03/23 00:38:35;;;;;;;24.02;9.07;;;8.60;99.90;;;;;;5048685;28;20037;-61
2022/03/23 00:41:01;;;;;;;21.75;8.82;;;8.50;99.90;;;;;;5029813;28;20411;-63
2022/03/23 00:43:27;;;;;;;26.13;8.35;;;8.50;99.90;;;;;;5050582;28;20047;-61
2022/03/23 00:45:53;;;;;;;24.60;10.10;;;8.40;99.90;;;;;;5048837;28;20049;-64
2022/03/23 00:48:19;;;;;;;18.27;8.05;;;8.40;99.90;;;;;;5048072;28;20062;-62
2022/03/23 00:50:45;;;;;;;22.25;8.55;;;8.30;99.90;;;;;;5043937;28;20038;-61
2022/03/23 00:53:10;;;;;;;31.67;9.88;;;8.30;99.90;;;;;;5039402;28;20664;-62
2022/03/23 00:55:36;;;;;;;22.35;9.55;;;8.20;99.90;;;;;;5039414;28;20436;-62
2022/03/23 00:58:02;;;;;;;19.77;7.95;;;8.20;99.90;;;;;;5041666;28;20128;-62
2022/03/23 01:00:27;;;;;;;19.98;8.70;;;8.10;99.90;;;;;;5043851;28;20029;-62
2022/03/23 01:02:53;;;;;;;18.92;8.43;;;8.10;99.90;;;;;;5039667;28;20041;-63
2022/03/23 01:05:19;;;;;;;19.13;8.77;;;8.10;99.90;;;;;;5046592;28;20044;-61
2022/03/23 01:07:44;;;;;;;17.75;8.35;;;8.00;99.90;;;;;;5052198;28;20033;-61
2022/03/23 01:10:12;;;;;;;18.05;8.20;;;8.00;99.90;;;;;;5051038;28;20117;-61
2022/03/23 01:12:43;;;;;;;25.65;8.45;;;7.90;99.90;;;;;;5052194;28;20102;-62
2022/03/23 01:15:11;;;;;;;24.33;9.73;;;7.90;99.90;;;;;;5051421;28;20025;-62
2022/03/23 01:17:37;;;;;;;25.25;8.80;;;7.90;99.90;;;;;;5052014;28;20037;-62
2022/03/23 01:20:08;;;;;;;19.13;9.35;;;7.80;99.90;;;;;;5051245;28;20044;-63
2022/03/23 01:22:35;;;;;;;24.45;9.00;;;7.80;99.90;;;;;;5051886;28;20389;-62
2022/03/23 01:25:03;;;;;;;18.88;8.68;;;7.80;99.90;;;;;;5051173;28;20045;-61
2022/03/23 01:27:29;;;;;;;21.83;8.00;;;7.70;99.90;;;;;;5051837;28;20040;-62
2022/03/23 01:29:54;;;;;;;24.05;9.07;;;7.80;99.90;;;;;;5051546;28;20041;-62
2022/03/23 01:32:20;;;;;;;22.27;9.13;;;7.70;99.90;;;;;;5051156;28;20029;-62
2022/03/23 01:34:45;;;;;;;19.50;8.90;;;7.70;99.90;;;;;;5051670;28;20116;-61
2022/03/23 01:37:11;;;;;;;24.77;9.18;;;7.70;99.90;;;;;;5050986;28;20033;-62
2022/03/23 01:39:36;;;;;;;23.63;8.98;;;7.60;99.90;;;;;;5051153;28;20123;-62
2022/03/23 01:42:02;;;;;;;30.38;8.90;;;7.60;99.90;;;;;;5052259;28;20737;-63
2022/03/23 01:44:28;;;;;;;22.83;9.10;;;7.60;99.90;;;;;;5051289;28;20385;-63
2022/03/23 01:47:06;;;;;;;21.67;8.90;;;7.50;99.90;;;;;;5051353;28;20064;-62
2022/03/23 01:49:33;;;;;;;21.92;8.30;;;7.50;99.90;;;;;;5050954;28;20040;-61
2022/03/23 01:51:59;;;;;;;22.90;8.15;;;7.40;99.90;;;;;;5050451;28;20033;-63
2022/03/23 01:54:24;;;;;;;25.88;8.68;;;7.40;99.90;;;;;;5051012;28;20041;-62
2022/03/23 01:56:50;;;;;;;21.33;9.70;;;7.40;99.90;;;;;;5051520;28;20033;-62
2022/03/23 01:59:17;;;;;;;20.85;8.40;;;7.40;99.90;;;;;;5032778;28;20033;-61
2022/03/23 02:01:43;;;;;;;24.83;8.77;;;7.40;99.90;;;;;;5050459;28;20053;-62
2022/03/23 02:04:09;;;;;;;32.42;9.25;;;7.30;99.90;;;;;;5028276;28;20036;-61
2022/03/23 02:06:35;;;;;;;24.13;8.85;;;7.30;99.90;;;;;;5049885;28;20037;-61
2022/03/23 02:09:01;;;;;;;26.27;9.27;;;7.30;99.90;;;;;;5050572;28;20033;-61
2022/03/23 02:11:27;;;;;;;20.23;9.15;;;7.20;99.90;;;;;;5031419;28;20091;-61
2022/03/23 02:13:53;;;;;;;24.65;9.35;;;7.20;99.90;;;;;;5040806;28;20152;-62
2022/03/23 02:16:19;;;;;;;23.23;8.95;;;7.20;99.90;;;;;;5040929;28;20120;-62
2022/03/23 02:18:45;;;;;;;27.50;10.40;;;7.20;99.90;;;;;;5039493;28;20034;-62
2022/03/23 02:21:14;;;;;;;23.75;8.65;;;7.10;99.90;;;;;;5041683;28;20033;-61
2022/03/23 02:23:39;;;;;;;23.35;9.60;;;7.10;99.90;;;;;;5046849;28;20090;-62
2022/03/23 02:26:06;;;;;;;22.20;9.13;;;7.10;99.90;;;;;;5032001;28;20037;-63
2022/03/23 02:28:32;;;;;;;22.95;8.98;;;7.10;99.90;;;;;;5050252;28;20036;-62
2022/03/23 02:30:58;;;;;;;18.23;8.13;;;7.00;99.90;;;;;;5048823;28;20045;-62
2022/03/23 02:33:24;;;;;;;22.02;8.85;;;7.00;99.90;;;;;;5050492;28;20033;-62
2022/03/23 02:35:49;;;;;;;25.52;9.10;;;6.90;99.90;;;;;;5050460;28;20033;-61
2022/03/23 02:38:16;;;;;;;24.02;9.90;;;6.90;99.90;;;;;;5049869;28;20025;-62
2022/03/23 02:40:42;;;;;;;22.33;9.65;;;6.90;99.90;;;;;;5049977;28;20063;-62
2022/03/23 02:43:08;;;;;;;25.08;9.32;;;6.90;99.90;;;;;;5033420;28;20029;-62
2022/03/23 02:45:34;;;;;;;24.77;9.15;;;6.90;99.90;;;;;;5049817;28;20060;-61
2022/03/23 02:47:59;;;;;;;20.50;8.55;;;6.90;99.90;;;;;;5031807;28;20120;-62
2022/03/23 02:50:26;;;;;;;26.00;10.32;;;7.10;99.90;;;;;;5049729;28;20092;-61
2022/03/23 03:04:11;;;;;;;26.10;9.10;;;7.40;99.90;;;;;;5046330;28;20043;-62
2022/03/23 03:06:37;;;;;;;23.15;9.52;;;7.50;99.90;;;;;;5049439;28;20696;-62
2022/03/23 03:09:02;;;;;;;22.70;9.07;;;7.50;99.90;;;;;;5049338;28;20435;-63
2022/03/23 03:11:28;;;;;;;20.27;8.25;;;7.50;99.90;;;;;;5049390;28;20037;-62
2022/03/23 03:13:53;;;;;;;25.63;9.38;;;7.50;99.90;;;;;;5049798;28;20034;-63
2022/03/23 03:16:19;;;;;;;20.08;8.23;;;7.40;99.90;;;;;;5049161;28;20033;-61
2022/03/23 03:18:48;;;;;;;26.10;8.25;;;7.40;99.90;;;;;;5049592;28;20082;-62
2022/03/23 03:21:15;;;;;;;25.67;9.23;;;7.40;99.90;;;;;;5048556;28;20646;-61
2022/03/23 03:23:43;;;;;;;26.45;8.88;;;7.30;99.90;;;;;;5049611;28;20049;-62
2022/03/23 03:26:14;;;;;;;24.40;9.15;;;7.30;99.90;;;;;;5049059;28;20063;-62
2022/03/23 03:28:41;;;;;;;29.65;9.75;;;7.20;99.90;;;;;;5049712;28;20495;-62
2022/03/23 03:31:10;;;;;;;23.02;9.07;;;7.10;99.90;;;;;;5030857;28;20070;-62
2022/03/23 03:33:36;;;;;;;18.13;9.02;;;7.10;99.90;;;;;;5045533;28;20094;-62
2022/03/23 03:36:03;;;;;;;18.80;8.60;;;7.00;99.90;;;;;;5048726;28;20507;-65
2022/03/23 03:38:29;;;;;;;24.38;8.82;;;6.90;99.90;;;;;;5049354;28;20407;-62
2022/03/23 03:40:55;;;;;;;21.33;8.75;;;6.90;99.90;;;;;;5049066;28;20392;-62
2022/03/23 03:43:21;;;;;;;25.10;9.15;;;6.80;99.90;;;;;;5052123;28;20025;-62
2022/03/23 03:45:47;;;;;;;25.80;9.93;;;6.70;99.90;;;;;;5053011;28;20052;-62
2022/03/23 03:48:13;;;;;;;30.55;10.27;;;6.70;99.90;;;;;;5051990;28;20040;-63
2022/03/23 03:50:39;;;;;;;27.02;10.13;;;6.70;99.90;;;;;;5052803;28;20087;-62
2022/03/23 03:53:07;;;;;;;25.15;9.63;;;6.70;99.90;;;;;;5050158;28;20063;-62
2022/03/23 03:55:34;;;;;;;26.92;11.82;;;6.70;99.90;;;;;;5045231;28;20412;-62
2022/03/23 03:58:00;;;;;;;27.88;10.20;;;6.70;99.90;;;;;;5048558;28;20113;-63
2022/03/23 04:00:25;;;;;;;25.17;9.73;;;6.80;99.90;;;;;;5048890;28;20116;-62
2022/03/23 04:02:51;;;;;;;21.40;9.15;;;6.80;99.90;;;;;;5048865;28;20481;-62
2022/03/23 04:05:17;;;;;;;27.42;9.90;;;6.80;99.90;;;;;;5048501;28;20352;-61
2022/03/23 04:07:42;;;;;;;26.40;10.32;;;6.90;99.90;;;;;;5048969;28;20174;-63
2022/03/23 04:10:09;;;;;;;25.45;10.05;;;6.90;99.90;;;;;;5048311;28;20036;-62
2022/03/23 04:12:35;;;;;;;31.60;10.35;;;6.90;99.90;;;;;;5031028;28;20044;-62
2022/03/23 04:15:01;;;;;;;28.10;9.98;;;6.90;99.90;;;;;;5048442;28;20045;-62
2022/03/23 04:17:27;;;;;;;27.98;10.63;;;6.90;99.90;;;;;;5048173;28;20037;-62
2022/03/23 04:19:53;;;;;;;33.78;11.15;;;6.90;99.90;;;;;;5048503;28;20044;-63
2022/03/23 04:22:18;;;;;;;27.10;10.07;;;6.90;99.90;;;;;;5048178;28;20051;-62
2022/03/23 04:24:44;;;;;;;29.83;11.30;;;6.90;99.90;;;;;;5048811;28;20056;-62
2022/03/23 04:27:09;;;;;;;28.85;11.10;;;7.00;99.90;;;;;;5048195;28;20043;-62
2022/03/23 04:29:35;;;;;;;28.35;10.77;;;7.10;99.90;;;;;;5049146;28;20829;-62
2022/03/23 04:32:01;;;;;;;33.88;12.05;;;7.10;99.90;;;;;;5051790;28;20036;-61
2022/03/23 04:34:26;;;;;;;25.85;10.07;;;7.10;99.90;;;;;;5052689;28;20041;-63
2022/03/23 04:36:52;;;;;;;32.38;10.98;;;7.10;99.90;;;;;;5052548;28;20057;-62
2022/03/23 04:39:17;;;;;;;26.63;10.00;;;7.10;99.90;;;;;;5052167;28;20037;-62
2022/03/23 04:41:43;;;;;;;30.08;10.60;;;7.20;99.90;;;;;;5052465;28;20032;-61
2022/03/23 04:44:08;;;;;;;29.40;9.90;;;7.20;99.90;;;;;;5052018;28;20462;-62
2022/03/23 04:46:34;;;;;;;32.72;11.75;;;7.20;99.90;;;;;;5052245;28;20043;-62
2022/03/23 04:48:59;;;;;;;27.02;10.18;;;7.10;99.90;;;;;;5047789;28;20048;-61
2022/03/23 04:51:25;;;;;;;31.52;10.75;;;7.10;99.90;;;;;;5052169;28;20031;-61
2022/03/23 04:53:51;;;;;;;29.05;10.35;;;7.10;99.90;;;;;;5052335;28;20129;-62
2022/03/23 04:56:16;;;;;;;28.92;10.52;;;7.10;99.90;;;;;;5051946;28;20110;-62
2022/03/23 04:58:42;;;;;;;24.13;9.35;;;7.10;99.90;;;;;;5052092;28;20488;-62
2022/03/23 05:01:08;;;;;;;28.75;10.52;;;7.10;99.90;;;;;;5051296;28;20033;-62
2022/03/23 05:03:34;;;;;;;23.30;10.05;;;7.10;99.90;;;;;;5034284;28;20041;-62
2022/03/23 05:06:00;;;;;;;26.40;10.45;;;7.00;99.90;;;;;;5051948;28;20039;-62
2022/03/23 05:08:25;;;;;;;31.75;10.80;;;7.00;99.90;;;;;;5051766;28;20025;-62
2022/03/23 05:10:52;;;;;;;29.98;11.05;;;7.00;99.90;;;;;;5033934;28;20051;-61
2022/03/23 05:13:17;;;;;;;29.95;10.40;;;7.00;99.90;;;;;;5051430;28;20063;-62
2022/03/23 05:15:43;;;;;;;18.50;8.77;;;7.00;99.90;;;;;;5051917;28;20396;-61
2022/03/23 05:18:09;;;;;;;29.00;9.57;;;7.10;99.90;;;;;;5033144;28;20389;-63
2022/03/23 05:20:35;;;;;;;28.63;10.13;;;7.10;99.90;;;;;;5051554;28;20120;-61
2022/03/23 05:23:00;;;;;;;25.02;8.93;;;7.10;99.90;;;;;;5051434;28;20029;-62
2022/03/23 05:25:26;;;;;;;24.08;10.40;;;7.10;99.90;;;;;;5051903;28;20047;-62
2022/03/23 05:27:52;;;;;;;28.58;9.70;;;7.00;99.90;;;;;;5051623;28;20504;-62
2022/03/23 05:30:18;;;;;;;28.67;10.07;;;6.90;99.90;;;;;;5050270;28;20366;-61
2022/03/23 05:32:44;;;;;;;22.73;10.35;;;6.90;99.90;;;;;;5043813;28;20568;-62
2022/03/23 05:35:11;;;;;;;24.27;9.18;;;6.90;99.90;;;;;;5040376;28;20033;-62
2022/03/23 05:37:37;;;;;;;23.70;11.02;;;6.80;99.90;;;;;;5023249;28;20048;-61
2022/03/23 05:40:03;;;;;;;24.23;10.05;;;6.70;99.90;;;;;;5020342;28;20412;-62
2022/03/23 05:42:29;;;;;;;21.92;9.07;;;6.60;99.90;;;;;;5040558;28;20059;-62
2022/03/23 05:44:55;;;;;;;24.40;11.10;;;6.50;99.90;;;;;;5039218;28;20818;-62
2022/03/23 05:47:21;;;;;;;31.13;9.15;;;6.50;99.90;;;;;;5036855;28;20090;-62
2022/03/23 05:49:46;;;;;;;21.15;9.13;;;6.40;99.90;;;;;;5040349;28;20381;-62
2022/03/23 05:52:12;;;;;;;28.65;11.32;;;6.30;99.90;;;;;;5038810;28;20067;-62
2022/03/23 05:54:38;;;;;;;27.15;10.15;;;6.20;99.90;;;;;;5040525;28;20030;-62
2022/03/23 05:57:04;;;;;;;26.55;9.82;;;6.20;99.90;;;;;;5040910;28;20047;-61
2022/03/23 05:59:30;;;;;;;24.27;9.85;;;6.10;99.90;;;;;;5051987;28;20029;-62
2022/03/23 06:01:59;;;;;;;29.15;10.27;;;6.10;99.90;;;;;;5048221;28;20064;-62
2022/03/23 06:04:25;;;;;;;25.58;10.55;;;6.00;99.90;;;;;;5046149;28;20559;-62
2022/03/23 06:06:52;;;;;;;26.27;11.27;;;6.10;99.90;;;;;;5042593;28;20124;-61
2022/03/23 06:09:19;;;;;;;29.23;10.30;;;6.10;99.90;;;;;;5045419;28;20459;-62
2022/03/23 06:11:44;;;;;;;30.08;11.65;;;6.20;99.90;;;;;;5047084;28;20541;-61
2022/03/23 06:14:10;;;;;;;30.75;11.35;;;6.30;99.90;;;;;;5047104;28;20037;-62
2022/03/23 06:16:35;;;;;;;30.73;11.45;;;6.50;99.90;;;;;;5038804;28;20037;-62
2022/03/23 06:19:02;;;;;;;28.60;11.60;;;6.60;99.90;;;;;;5041922;28;20601;-62
2022/03/23 06:21:28;;;;;;;25.30;9.75;;;6.70;99.90;;;;;;5047017;28;20104;-62
2022/03/23 06:23:54;;;;;;;27.98;9.88;;;6.90;99.90;;;;;;5049232;28;20749;-61
2022/03/23 06:26:19;;;;;;;25.42;9.55;;;7.00;99.90;;;;;;5045544;28;20056;-62
2022/03/23 06:28:45;;;;;;;31.00;10.02;;;7.10;99.90;;;;;;5044313;28;20033;-61
2022/03/23 06:31:10;;;;;;;32.58;10.88;;;7.20;99.90;;;;;;5045361;28;20148;-62
2022/03/23 06:33:36;;;;;;;31.08;10.75;;;7.20;99.90;;;;;;5047658;28;20029;-61
2022/03/23 06:36:02;;;;;;;27.20;9.70;;;7.40;99.90;;;;;;5045936;28;20243;-62
2022/03/23 06:38:29;;;;;;;27.35;9.93;;;7.40;99.90;;;;;;5031557;28;20516;-62
2022/03/23 06:40:54;;;;;;;28.90;9.65;;;7.60;99.90;;;;;;5042830;28;20037;-62
2022/03/23 06:43:20;;;;;;;30.48;10.23;;;7.70;99.90;;;;;;5042718;28;20060;-61
2022/03/23 06:45:46;;;;;;;28.38;10.70;;;7.80;99.90;;;;;;5046541;28;20036;-62
2022/03/23 06:48:11;;;;;;;24.42;10.23;;;7.90;99.90;;;;;;5042139;28;20037;-61
2022/03/23 06:50:37;;;;;;;27.98;9.65;;;8.10;99.90;;;;;;5041865;28;20028;-61
2022/03/23 06:53:03;;;;;;;34.45;10.50;;;8.30;99.90;;;;;;5045798;28;20048;-63
2022/03/23 06:55:29;;;;;;;29.08;11.00;;;8.50;99.90;;;;;;5028007;28;20037;-62
2022/03/23 06:57:55;;;;;;;31.85;10.15;;;8.70;99.90;;;;;;5043544;28;20040;-61
2022/03/23 07:00:21;;;;;;;24.70;9.23;;;8.80;99.90;;;;;;5041435;28;20477;-61
2022/03/23 07:02:48;;;;;;;25.30;10.45;;;9.00;99.90;;;;;;5046094;28;20041;-61
2022/03/23 07:05:16;;;;;;;23.05;8.77;;;9.10;99.90;;;;;;5044841;28;20040;-62
2022/03/23 07:10:30;;;;;;;23.23;9.57;;;9.40;99.90;;;;;;4999420;28;20040;-62
2022/03/23 07:12:57;;;;;;;21.05;9.02;;;9.60;99.90;;;;;;5041450;28;20473;-63
2022/03/23 07:15:23;;;;;;;28.48;10.00;;;9.80;99.90;;;;;;5043879;28;20210;-61
2022/03/23 07:17:48;;;;;;;25.30;9.48;;;9.90;99.90;;;;;;5038793;28;20040;-61
2022/03/23 07:20:14;;;;;;;28.23;10.38;;;10.10;99.90;;;;;;5047004;28;20041;-61
2022/03/23 07:22:40;;;;;;;21.70;9.50;;;10.20;99.90;;;;;;5025161;28;20047;-61
2022/03/23 07:25:06;;;;;;;25.67;9.85;;;10.40;99.90;;;;;;5044168;28;20492;-62
2022/03/23 07:27:31;;;;;;;27.80;10.95;;;10.50;99.90;;;;;;5024365;28;20045;-61
2022/03/23 07:29:57;;;;;;;26.05;9.55;;;10.50;99.90;;;;;;5044911;28;20166;-65
2022/03/23 07:32:23;;;;;;;24.52;9.45;;;10.60;99.90;;;;;;5044300;28;20524;-61
2022/03/23 07:34:48;;;;;;;22.83;8.77;;;10.70;99.90;;;;;;5042047;28;20047;-61
2022/03/23 07:37:14;;;;;;;28.50;9.70;;;10.80;99.90;;;;;;5044140;28;20714;-62
2022/03/23 07:39:41;;;;;;;23.40;10.38;;;10.90;99.90;;;;;;5043438;28;20029;-62
2022/03/23 07:42:06;;;;;;;22.60;9.60;;;11.10;99.90;;;;;;5040904;28;20041;-61
2022/03/23 07:44:32;;;;;;;23.35;9.25;;;11.20;99.90;;;;;;5047998;28;20119;-62
2022/03/23 07:46:59;;;;;;;23.70;10.15;;;11.30;99.60;;;;;;5042806;28;20047;-61
2022/03/23 07:49:25;;;;;;;25.55;10.32;;;11.40;99.60;;;;;;5025285;28;20045;-62
2022/03/23 07:51:50;;;;;;;20.73;8.40;;;11.50;99.00;;;;;;5044244;28;20082;-62
2022/03/23 07:54:16;;;;;;;24.33;8.90;;;11.60;98.60;;;;;;5041939;28;20048;-62
2022/03/23 07:56:42;;;;;;;27.67;10.10;;;11.80;99.00;;;;;;5041366;28;20030;-61
2022/03/23 07:59:07;;;;;;;25.58;8.98;;;11.90;97.00;;;;;;5046009;28;20045;-63
2022/03/23 08:01:33;;;;;;;23.58;10.20;;;12.00;96.10;;;;;;5027233;28;20112;-62
2022/03/23 08:04:00;;;;;;;26.35;8.60;;;12.20;96.80;;;;;;5044518;28;20041;-62
2022/03/23 08:06:26;;;;;;;26.45;9.35;;;12.50;93.60;;;;;;5049092;28;20040;-62
2022/03/23 08:08:52;;;;;;;32.75;9.40;;;12.60;92.20;;;;;;5047397;28;20025;-61
2022/03/23 08:11:18;;;;;;;25.23;9.43;;;12.70;92.50;;;;;;5042411;28;20052;-61
2022/03/23 08:13:44;;;;;;;26.20;9.60;;;12.80;91.10;;;;;;5050453;28;20039;-63
2022/03/23 08:16:09;;;;;;;26.20;9.43;;;12.90;90.20;;;;;;5046532;28;20068;-60
2022/03/23 08:18:36;;;;;;;24.48;8.68;;;13.00;90.00;;;;;;5046776;28;20407;-61
2022/03/23 08:21:02;;;;;;;24.17;9.80;;;13.00;88.60;;;;;;5044684;28;20051;-62
2022/03/23 08:23:30;;;;;;;22.52;8.68;;;13.10;90.10;;;;;;5033778;28;20523;-61
2022/03/23 08:25:55;;;;;;;21.38;9.20;;;13.20;86.00;;;;;;5048194;28;20028;-61
2022/03/23 08:28:22;;;;;;;22.33;9.50;;;13.30;84.50;;;;;;5044646;28;20032;-62
2022/03/23 08:30:47;;;;;;;27.15;10.45;;;13.50;83.70;;;;;;5047848;28;20029;-62
2022/03/23 08:33:13;;;;;;;24.48;9.63;;;13.60;82.00;;;;;;5047707;28;20031;-63
2022/03/23 08:35:39;;;;;;;21.02;9.50;;;13.60;81.80;;;;;;5048297;28;20120;-62
2022/03/23 08:38:06;;;;;;;20.20;9.00;;;13.60;81.70;;;;;;5032923;28;20116;-61
2022/03/23 08:40:32;;;;;;;21.75;9.02;;;13.70;81.90;;;;;;5029060;28;20033;-62
2022/03/23 08:42:58;;;;;;;23.25;9.25;;;13.80;79.90;;;;;;5044423;28;20481;-63
2022/03/23 08:45:25;;;;;;;28.92;9.95;;;13.90;79.40;;;;;;5044838;28;20508;-62
2022/03/23 08:47:51;;;;;;;26.75;9.65;;;13.90;79.90;;;;;;5048101;28;20051;-62
2022/03/23 08:50:17;;;;;;;26.25;10.48;;;14.00;82.00;;;;;;5042870;28;20044;-62
2022/03/23 08:52:42;;;;;;;24.48;9.05;;;14.10;79.50;;;;;;5047142;28;20029;-61
2022/03/23 08:55:13;;;;;;;22.25;9.00;;;14.30;77.40;;;;;;5047219;28;20408;-62
2022/03/23 08:57:39;;;;;;;24.35;10.60;;;14.40;76.90;;;;;;5030663;28;20040;-62
2022/03/23 09:00:06;;;;;;;21.83;10.20;;;14.50;76.90;;;;;;5045265;28;20788;-61
2022/03/23 09:02:32;;;;;;;24.90;9.52;;;14.50;76.30;;;;;;5047369;28;20037;-61
2022/03/23 09:04:57;;;;;;;27.55;10.35;;;14.50;75.50;;;;;;5027190;28;20040;-62
2022/03/23 09:07:23;;;;;;;20.63;8.40;;;14.60;75.60;;;;;;5044109;28;20531;-64
2022/03/23 09:09:49;;;;;;;25.10;9.52;;;14.70;73.80;;;;;;5048943;28;20033;-61
2022/03/23 09:12:15;;;;;;;20.98;9.27;;;14.90;73.50;;;;;;5041684;28;20037;-62
2022/03/23 09:14:41;;;;;;;21.75;8.98;;;14.90;71.60;;;;;;5043765;28;20112;-61
2022/03/23 09:17:07;;;;;;;19.17;9.07;;;15.00;71.90;;;;;;5041858;28;20044;-61
2022/03/23 09:19:33;;;;;;;21.00;9.15;;;15.10;69.20;;;;;;5031745;28;20036;-62
2022/03/23 09:21:59;;;;;;;21.48;10.25;;;15.10;70.20;;;;;;5045885;28;20041;-61
2022/03/23 09:24:26;;;;;;;20.67;8.73;;;15.30;68.60;;;;;;5046667;28;20047;-61
2022/03/23 09:26:53;;;;;;;22.60;9.13;;;15.30;68.20;;;;;;5045695;28;20035;-62
2022/03/23 09:29:19;;;;;;;19.88;9.05;;;15.30;67.90;;;;;;5045164;28;20481;-62
2022/03/23 09:31:44;;;;;;;20.50;9.57;;;15.40;68.00;;;;;;5027988;28;20025;-63
2022/03/23 09:34:10;;;;;;;22.80;8.68;;;15.50;67.00;;;;;;5045819;28;20049;-62
2022/03/23 09:39:20;;;;;;;23.23;8.70;;;15.60;66.30;;;;;;5043379;28;20040;-61
2022/03/23 09:41:47;;;;;;;23.55;9.13;;;15.60;65.30;;;;;;5025518;28;20432;-63
2022/03/23 09:44:14;;;;;;;22.80;10.68;;;15.60;66.10;;;;;;5046858;28;20508;-61
2022/03/23 09:46:40;;;;;;;19.25;9.30;;;15.70;66.50;;;;;;5050162;28;20037;-63
2022/03/23 09:49:07;;;;;;;23.35;10.55;;;15.90;65.00;;;;;;5043678;28;20037;-60
2022/03/23 09:51:34;;;;;;;21.38;9.38;;;15.90;64.60;;;;;;5043263;28;20043;-64
2022/03/23 09:54:02;;;;;;;22.48;9.60;;;16.00;65.50;;;;;;5044570;28;20048;-61
2022/03/23 09:56:27;;;;;;;21.92;9.90;;;16.10;65.90;;;;;;5046147;28;20025;-61
2022/03/23 09:58:54;;;;;;;25.33;10.32;;;16.30;65.50;;;;;;5047468;28;20475;-62
2022/03/23 10:01:49;;;;;;;21.27;9.55;;;16.40;65.70;;;;;;5042029;28;20137;-62
2022/03/23 10:04:17;;;;;;;24.90;11.00;;;16.50;64.20;;;;;;5043198;28;20036;-62
2022/03/23 10:07:02;;;;;;;20.13;8.77;;;16.60;63.20;;;;;;5042190;28;20069;-62
2022/03/23 10:09:52;;;;;;;22.20;9.45;;;16.60;64.10;;;;;;5044587;28;20040;-61
2022/03/23 10:12:51;;;;;;;24.17;9.70;;;16.70;64.10;;;;;;5043045;28;20472;-63
2022/03/23 10:15:29;;;;;;;22.58;9.02;;;16.80;62.30;;;;;;5041276;28;20045;-62
2022/03/23 10:18:25;;;;;;;18.55;8.82;;;17.00;60.00;;;;;;5025222;28;20065;-61
2022/03/23 10:20:51;;;;;;;17.67;8.02;;;17.00;60.40;;;;;;5040869;28;20033;-61
2022/03/23 10:23:23;;;;;;;21.10;8.07;;;17.10;60.90;;;;;;5040515;28;20032;-61
2022/03/23 10:25:49;;;;;;;17.42;8.68;;;17.30;62.10;;;;;;5046040;28;20513;-62
2022/03/23 10:28:16;;;;;;;19.70;9.18;;;17.30;59.30;;;;;;5044959;28;20057;-61
2022/03/23 10:30:43;;;;;;;26.25;7.93;;;17.40;59.90;;;;;;5039717;28;20029;-63
2022/03/23 10:33:23;;;;;;;24.02;8.63;;;17.50;57.90;;;;;;5044817;28;20400;-61
2022/03/23 10:35:49;;;;;;;22.83;9.60;;;17.50;60.30;;;;;;5044035;28;20033;-63
2022/03/23 10:38:17;;;;;;;17.23;8.48;;;17.60;57.20;;;;;;5043927;28;20037;-62
2022/03/23 10:40:44;;;;;;;21.73;9.40;;;17.60;56.70;;;;;;5043314;28;20046;-63
2022/03/23 10:43:15;;;;;;;21.35;8.13;;;17.60;58.60;;;;;;5045581;28;20051;-62
2022/03/23 10:45:41;;;;;;;22.73;10.30;;;17.70;55.80;;;;;;5043396;28;20083;-62
2022/03/23 10:48:13;;;;;;;20.08;9.25;;;17.70;55.90;;;;;;5043915;28;20025;-61
2022/03/23 10:51:00;;;;;;;20.85;9.10;;;17.70;57.20;;;;;;5023635;28;20078;-61
2022/03/23 10:53:37;;;;;;;21.55;9.00;;;17.60;56.30;;;;;;5028448;28;20037;-62
2022/03/23 10:56:03;;;;;;;17.50;8.75;;;17.60;55.80;;;;;;5042049;28;20118;-62
2022/03/23 10:58:29;;;;;;;20.05;8.50;;;17.60;56.20;;;;;;5043296;28;20029;-61
2022/03/23 11:00:57;;;;;;;20.48;10.32;;;17.60;57.70;;;;;;5043969;28;20025;-61
2022/03/23 11:03:43;;;;;;;21.25;9.48;;;17.70;56.10;;;;;;5028451;28;20044;-62
2022/03/23 11:06:14;;;;;;;28.05;9.00;;;17.80;56.70;;;;;;5038062;28;20034;-61
2022/03/23 11:08:43;;;;;;;21.85;9.20;;;17.90;55.00;;;;;;5042214;28;20500;-61
2022/03/23 11:16:43;;;;;;;23.17;9.45;;;18.10;55.70;;;;;;5040938;28;20462;-60
2022/03/23 11:19:15;;;;;;;17.08;8.40;;;18.00;55.90;;;;;;5039821;28;20443;-61
2022/03/23 11:22:09;;;;;;;17.20;8.43;;;18.00;56.20;;;;;;5043858;28;20033;-61
2022/03/23 11:24:36;;;;;;;18.63;8.52;;;18.10;56.40;;;;;;5045863;28;20044;-62
2022/03/23 11:27:05;;;;;;;23.85;10.30;;;18.10;56.80;;;;;;5024107;28;20029;-61
2022/03/23 11:29:32;;;;;;;22.45;9.25;;;18.30;55.80;;;;;;5042473;28;20040;-61
2022/03/23 11:32:00;;;;;;;24.35;10.02;;;18.30;53.40;;;;;;5048775;28;20028;-66
2022/03/23 11:34:30;;;;;;;19.80;9.23;;;18.20;54.30;;;;;;5022979;28;20408;-61
2022/03/23 11:36:56;;;;;;;20.67;9.90;;;18.20;53.90;;;;;;5038264;28;20055;-61
2022/03/23 11:39:22;;;;;;;22.52;10.30;;;18.20;55.10;;;;;;5043917;28;20126;-61
2022/03/23 11:41:51;;;;;;;23.55;10.45;;;18.20;54.60;;;;;;5043636;28;20032;-60
2022/03/23 11:44:22;;;;;;;21.58;10.52;;;18.20;56.00;;;;;;5038463;28;20033;-61
2022/03/23 11:46:49;;;;;;;20.67;9.00;;;18.30;55.80;;;;;;5041989;28;20029;-61
2022/03/23 11:49:35;;;;;;;19.70;9.20;;;18.30;54.20;;;;;;5042862;28;20055;-63
2022/03/23 11:52:30;;;;;;;23.35;9.88;;;18.20;55.60;;;;;;5020547;28;20025;-61
2022/03/23 11:55:37;;;;;;;23.27;11.90;;;18.20;54.50;;;;;;5043875;28;20060;-61
2022/03/23 11:58:03;;;;;;;30.30;10.38;;;18.20;54.60;;;;;;5041395;28;20063;-61
2022/03/23 12:00:37;;;;;;;20.08;9.40;;;18.10;54.80;;;;;;5037626;28;20597;-61
2022/03/23 12:03:03;;;;;;;22.27;10.32;;;18.10;54.50;;;;;;5039475;28;20029;-62
2022/03/23 12:05:35;;;;;;;23.00;10.38;;;18.10;54.30;;;;;;5036848;28;20046;-61
2022/03/23 12:08:01;;;;;;;19.92;9.40;;;18.00;54.40;;;;;;5038928;28;20029;-62
2022/03/23 12:10:31;;;;;;;25.08;9.45;;;18.20;53.20;;;;;;5036387;28;20515;-61
2022/03/23 12:12:57;;;;;;;21.95;9.40;;;18.10;53.80;;;;;;5021197;28;20041;-64
2022/03/23 12:15:27;;;;;;;19.90;8.68;;;18.10;52.10;;;;;;5035159;28;20037;-62
2022/03/23 12:17:58;;;;;;;19.63;9.32;;;18.10;52.60;;;;;;5037961;28;20033;-61
2022/03/23 12:20:33;;;;;;;19.33;9.93;;;18.10;52.40;;;;;;5037398;28;20512;-61
2022/03/23 12:23:14;;;;;;;20.65;9.25;;;18.10;52.30;;;;;;5036458;28;20056;-61
2022/03/23 12:25:48;;;;;;;24.55;9.60;;;18.10;53.20;;;;;;5044399;28;20037;-62
2022/03/23 12:28:27;;;;;;;26.25;9.63;;;18.10;53.50;;;;;;5047588;28;20048;-61
2022/03/23 12:30:56;;;;;;;17.80;9.18;;;18.10;52.90;;;;;;5047183;28;20543;-61
2022/03/23 12:33:22;;;;;;;22.20;9.38;;;18.10;53.30;;;;;;5043088;28;20041;-62
2022/03/23 12:35:49;;;;;;;22.08;9.27;;;18.20;53.20;;;;;;5029566;28;20075;-60
2022/03/23 12:38:25;;;;;;;19.02;8.63;;;18.20;53.50;;;;;;5047318;28;20045;-63
2022/03/23 12:40:51;;;;;;;20.33;8.73;;;18.30;52.20;;;;;;5047318;28;20040;-61
2022/03/23 12:43:46;;;;;;;22.52;8.40;;;18.20;52.20;;;;;;5046206;28;20057;-63
2022/03/23 12:46:20;;;;;;;22.98;8.88;;;18.30;53.30;;;;;;5045466;28;20623;-62
2022/03/23 13:00:25;;;;;;;21.10;9.02;;;18.20;51.10;;;;;;5040186;28;20079;-61
2022/03/23 13:03:07;;;;;;;19.60;8.68;;;18.30;51.20;;;;;;5042384;28;20039;-61
2022/03/23 13:05:37;;;;;;;19.45;7.65;;;18.30;52.30;;;;;;5045697;28;20178;-62
2022/03/23 13:08:27;;;;;;;15.80;8.43;;;18.30;51.40;;;;;;5046838;28;20044;-61
2022/03/23 13:11:01;;;;;;;17.58;8.05;;;18.30;49.90;;;;;;5038969;28;20033;-61
2022/03/23 13:13:37;;;;;;;16.25;7.32;;;18.30;50.20;;;;;;5033602;28;20063;-61
2022/03/23 13:16:15;;;;;;;14.63;7.10;;;18.20;47.50;;;;;;5047724;28;20043;-61
2022/03/23 13:18:42;;;;;;;21.10;7.18;;;18.20;47.70;;;;;;5047797;28;20093;-63